Time;durP1;ratioP1;P1;durP2;ratioP2;P2;SDS_P1;SDS_P2;PMS_P1;PMS_P2;Temp;Humidity;BMP_temperature;BMP_pressure;BME280_temperature;BME280_humidity;BME280_pressure;Samples;Min_cycle;Max_cycle;Signal;HPM_P1;HPM_P2
2022/07/11 00:00:12;;;;;;;13.30;2.35;;;;;;;23.25;38.45;98889.97;4957634;28;20110;-48
2022/07/11 00:02:42;;;;;;;8.60;1.70;;;;;;;23.18;38.34;98876.09;4955770;28;20517;-49
2022/07/11 00:05:09;;;;;;;9.07;2.05;;;;;;;23.15;38.21;98879.31;4954321;29;20057;-49
2022/07/11 00:07:35;;;;;;;8.40;3.97;;;;;;;23.12;38.43;98880.69;4954229;29;20023;-49
2022/07/11 00:10:04;;;;;;;5.03;1.73;;;;;;;23.06;38.55;98889.84;4955402;28;20027;-49
2022/07/11 00:12:30;;;;;;;5.90;1.65;;;;;;;23.04;38.52;98883.13;4955366;28;20037;-49
2022/07/11 00:14:56;;;;;;;7.05;1.65;;;;;;;22.97;38.54;98891.44;4954084;29;20031;-49
2022/07/11 00:17:23;;;;;;;10.05;3.30;;;;;;;22.89;38.68;98887.47;4955308;28;20027;-48
2022/07/11 00:19:49;;;;;;;8.00;2.20;;;;;;;22.80;38.78;98880.31;4955202;28;20023;-49
2022/07/11 00:22:15;;;;;;;8.10;3.65;;;;;;;22.74;38.58;98887.56;4969935;28;20038;-49
2022/07/11 00:24:41;;;;;;;19.08;12.80;;;;;;;22.69;38.83;98879.56;4955138;28;20051;-48
2022/07/11 00:27:07;;;;;;;9.50;2.38;;;;;;;22.64;38.97;98888.41;4953783;29;20066;-49
2022/07/11 00:29:33;;;;;;;7.72;2.08;;;;;;;22.67;39.05;98879.03;4953800;29;20453;-49
2022/07/11 00:31:59;;;;;;;7.95;1.60;;;;;;;22.66;38.84;98883.59;4953738;29;20030;-49
2022/07/11 00:34:25;;;;;;;7.50;1.48;;;;;;;22.63;38.93;98878.78;4953656;29;20067;-49
2022/07/11 00:36:51;;;;;;;2.75;1.50;;;;;;;22.62;39.03;98890.56;4953362;29;20593;-48
2022/07/11 00:39:17;;;;;;;5.85;1.67;;;;;;;22.71;38.85;98891.56;4953615;29;20126;-48
2022/07/11 00:41:43;;;;;;;5.50;1.83;;;;;;;22.78;38.73;98893.16;4953523;29;20035;-49
2022/07/11 00:44:10;;;;;;;28.52;25.83;;;;;;;22.74;38.90;98890.25;4954675;28;20019;-49
2022/07/11 00:46:35;;;;;;;6.50;2.70;;;;;;;22.68;38.86;98886.78;4953498;29;20027;-49
2022/07/11 00:49:02;;;;;;;13.10;1.90;;;;;;;22.64;38.83;98882.28;4954696;29;20019;-48
2022/07/11 00:51:29;;;;;;;7.50;1.17;;;;;;;22.61;38.81;98880.13;4937401;29;20042;-48
2022/07/11 00:53:58;;;;;;;5.75;1.23;;;;;;;22.52;38.71;98886.06;4954666;28;20030;-48
2022/07/11 00:56:29;;;;;;;6.25;1.42;;;;;;;22.46;38.96;98881.81;4954596;28;20027;-48
2022/07/11 00:58:57;;;;;;;15.98;2.00;;;;;;;22.39;38.89;98872.47;4954607;28;20023;-48
2022/07/11 01:01:23;;;;;;;7.20;2.08;;;;;;;22.38;39.10;98874.34;4954470;28;20031;-48
2022/07/11 01:03:49;;;;;;;7.97;1.40;;;;;;;22.29;39.28;98879.44;4953122;29;20023;-49
2022/07/11 01:06:15;;;;;;;7.47;1.90;;;;;;;22.26;39.17;98879.22;4954604;28;20114;-49
2022/07/11 01:08:43;;;;;;;5.60;1.33;;;;;;;22.27;39.28;98872.78;4954403;28;20027;-49
2022/07/11 01:11:12;;;;;;;14.13;2.60;;;;;;;22.24;39.79;98867.97;4954319;28;20485;-49
2022/07/11 01:13:40;;;;;;;11.07;2.38;;;;;;;22.30;39.59;98867.69;4954360;28;20027;-49
2022/07/11 01:16:20;;;;;;;12.57;2.10;;;;;;;22.39;39.48;98875.94;4954269;28;20027;-49
2022/07/11 01:18:53;;;;;;;10.40;1.60;;;;;;;22.43;39.37;98870.84;4954342;28;20023;-49
2022/07/11 01:21:26;;;;;;;20.13;2.17;;;;;;;22.40;39.26;98869.53;4968944;28;20035;-49
2022/07/11 01:23:55;;;;;;;11.30;1.33;;;;;;;22.34;39.49;98870.63;4954197;28;20027;-49
2022/07/11 01:26:22;;;;;;;12.65;1.60;;;;;;;22.22;39.47;98868.22;4954147;28;20392;-49
2022/07/11 01:28:48;;;;;;;10.40;2.22;;;;;;;22.08;39.77;98869.88;4952785;29;20066;-49
2022/07/11 01:31:14;;;;;;;13.93;2.78;;;;;;;21.98;40.39;98868.00;4954064;28;20031;-49
2022/07/11 01:33:40;;;;;;;5.22;0.93;;;;;;;21.94;40.50;98867.75;4954126;28;20042;-48
2022/07/11 01:36:07;;;;;;;10.10;1.50;;;;;;;21.91;40.32;98867.47;4953972;28;20027;-48
2022/07/11 01:38:32;;;;;;;7.43;1.10;;;;;;;21.84;40.48;98878.47;4952577;29;20469;-49
2022/07/11 01:41:00;;;;;;;10.45;2.03;;;;;;;21.76;40.74;98875.53;4953789;29;20098;-49
2022/07/11 01:43:26;;;;;;;6.78;1.30;;;;;;;21.72;40.75;98878.72;4953854;29;20119;-49
2022/07/11 01:45:53;;;;;;;11.05;1.42;;;;;;;21.68;41.00;98883.00;4952579;29;20035;-49
2022/07/11 01:48:20;;;;;;;11.00;1.80;;;;;;;21.72;41.14;98883.28;4953845;28;20055;-49
2022/07/11 01:50:46;;;;;;;11.13;1.95;;;;;;;21.82;40.92;98890.50;4953826;28;20429;-49
2022/07/11 01:53:12;;;;;;;7.60;1.10;;;;;;;21.92;40.80;98885.13;4954376;28;20389;-49
2022/07/11 01:55:38;;;;;;;7.57;1.88;;;;;;;21.82;40.70;98883.28;4953755;28;20031;-48
2022/07/11 01:58:03;;;;;;;12.18;1.70;;;;;;;21.74;40.98;98889.16;4952532;29;20024;-49
2022/07/11 02:00:29;;;;;;;10.05;1.52;;;;;;;21.67;41.36;98893.97;4952403;29;20066;-49
2022/07/11 02:02:55;;;;;;;6.28;1.55;;;;;;;21.67;41.38;98893.97;4953577;29;20042;-49
2022/07/11 02:05:21;;;;;;;15.25;2.38;;;;;;;21.73;41.55;98893.72;4952387;29;20020;-49
2022/07/11 02:10:31;;;;;;;5.07;1.65;;;;;;;21.91;41.05;98892.34;4957888;29;20069;-49
2022/07/11 02:12:58;;;;;;;5.28;1.33;;;;;;;21.85;41.23;98892.59;4957574;29;20055;-49
2022/07/11 02:15:25;;;;;;;10.82;2.08;;;;;;;21.80;41.08;98889.97;4957517;28;20102;-49
2022/07/11 02:17:51;;;;;;;7.63;1.65;;;;;;;21.73;41.32;98890.22;4956160;29;20087;-49
2022/07/11 02:20:19;;;;;;;11.73;1.70;;;;;;;21.60;41.30;98891.56;4956119;29;20023;-49
2022/07/11 02:22:44;;;;;;;7.20;1.80;;;;;;;21.46;41.48;98875.28;4955992;29;20417;-48
2022/07/11 02:25:10;;;;;;;7.47;2.63;;;;;;;21.31;41.96;98880.59;4957334;29;20055;-48
2022/07/11 02:27:36;;;;;;;10.43;1.85;;;;;;;21.26;42.34;98884.03;4957268;28;20383;-49
2022/07/11 02:30:02;;;;;;;9.60;1.98;;;;;;;21.30;42.31;98892.31;4955927;29;20095;-49
2022/07/11 02:32:28;;;;;;;8.55;1.55;;;;;;;21.28;42.36;98889.91;4955927;29;20034;-49
2022/07/11 02:34:53;;;;;;;11.57;2.40;;;;;;;21.33;42.73;98892.59;4957165;29;20027;-49
2022/07/11 02:37:20;;;;;;;7.63;1.65;;;;;;;21.50;42.61;98880.88;4956717;29;20039;-49
2022/07/11 02:39:47;;;;;;;8.35;1.88;;;;;;;21.50;42.41;98881.69;4957546;28;20477;-49
2022/07/11 02:42:13;;;;;;;13.85;2.53;;;;;;;21.42;43.17;98881.38;4956970;28;20027;-49
2022/07/11 02:44:39;;;;;;;10.90;2.20;;;;;;;21.60;42.92;98888.09;4956927;29;20030;-49
2022/07/11 02:47:05;;;;;;;6.95;2.28;;;;;;;21.87;43.05;98888.63;4956939;28;20027;-49
2022/07/11 02:49:32;;;;;;;9.77;2.55;;;;;;;22.07;42.85;98882.44;4956890;28;20024;-49
2022/07/11 02:51:58;;;;;;;9.02;2.25;;;;;;;22.12;42.69;98878.94;4956823;28;20078;-49
2022/07/11 02:54:24;;;;;;;11.20;2.92;;;;;;;21.96;42.60;98874.72;4955540;29;20065;-48
2022/07/11 02:56:50;;;;;;;8.73;1.75;;;;;;;21.84;42.87;98880.34;4956782;28;20106;-49
2022/07/11 02:59:15;;;;;;;3.95;1.50;;;;;;;21.84;42.72;98888.34;4956776;28;20449;-49
2022/07/11 03:01:41;;;;;;;8.02;1.55;;;;;;;21.90;42.44;98887.28;4956686;28;20023;-49
2022/07/11 03:04:10;;;;;;;7.25;1.77;;;;;;;21.73;42.88;98887.53;4956555;29;20027;-48
2022/07/11 03:06:38;;;;;;;10.27;1.63;;;;;;;21.63;42.93;98888.38;4971346;28;20031;-48
2022/07/11 03:09:05;;;;;;;7.97;1.45;;;;;;;21.59;42.75;98891.81;4956560;28;20030;-49
2022/07/11 03:11:31;;;;;;;9.70;1.67;;;;;;;21.50;43.15;98888.91;4956557;28;20031;-49
2022/07/11 03:13:57;;;;;;;5.00;1.60;;;;;;;21.34;43.31;98888.84;4956495;28;20083;-49
2022/07/11 03:16:24;;;;;;;9.98;1.25;;;;;;;21.12;43.49;98891.75;4956428;28;20031;-49
2022/07/11 03:18:50;;;;;;;5.50;1.70;;;;;;;20.97;43.92;98894.41;4956238;28;20050;-49
2022/07/11 03:21:16;;;;;;;7.47;1.80;;;;;;;20.85;44.31;98891.97;4956341;28;20023;-49
2022/07/11 03:23:42;;;;;;;11.50;1.40;;;;;;;20.73;44.48;98894.06;4956271;28;20561;-49
2022/07/11 03:26:07;;;;;;;6.82;1.73;;;;;;;20.63;45.03;98897.50;4956266;28;20050;-49
2022/07/11 03:28:33;;;;;;;7.93;1.48;;;;;;;20.55;45.14;98905.97;4954962;29;20031;-49
2022/07/11 03:30:59;;;;;;;9.32;1.70;;;;;;;20.49;45.22;98907.81;4956691;29;20057;-49
2022/07/11 03:33:25;;;;;;;5.97;1.38;;;;;;;20.40;45.51;98904.00;4956172;29;20489;-49
2022/07/11 03:35:51;;;;;;;11.05;2.10;;;;;;;20.30;45.76;98898.63;4954794;29;20043;-48
2022/07/11 03:38:20;;;;;;;14.02;2.20;;;;;;;20.20;46.24;98895.91;4954550;29;20059;-49
2022/07/11 03:40:47;;;;;;;9.20;1.83;;;;;;;20.17;46.60;98904.44;4955882;28;20031;-49
2022/07/11 03:43:14;;;;;;;8.05;1.95;;;;;;;20.14;46.63;98903.91;4955865;28;20051;-48
2022/07/11 03:45:40;;;;;;;7.80;2.00;;;;;;;20.13;46.62;98898.81;4955921;28;20063;-49
2022/07/11 03:48:07;;;;;;;10.60;2.38;;;;;;;20.09;46.73;98901.19;4955868;28;20059;-49
2022/07/11 03:50:34;;;;;;;10.35;2.10;;;;;;;20.03;46.98;98901.44;4955791;28;20027;-48
2022/07/11 03:53:01;;;;;;;7.72;2.00;;;;;;;20.01;47.08;98904.34;4955721;29;20086;-49
2022/07/11 03:55:27;;;;;;;11.85;2.10;;;;;;;19.94;47.12;98904.56;4956001;28;20035;-49
2022/07/11 03:57:53;;;;;;;9.40;2.05;;;;;;;19.88;47.58;98904.78;4955652;28;20450;-49
2022/07/11 04:00:20;;;;;;;13.32;2.45;;;;;;;19.86;47.68;98913.03;4955622;29;20102;-49
2022/07/11 04:02:47;;;;;;;10.90;2.28;;;;;;;19.84;48.56;98909.00;4955537;29;20493;-48
2022/07/11 04:05:13;;;;;;;8.55;2.38;;;;;;;19.95;48.52;98910.69;4955559;28;20457;-49
2022/07/11 04:07:39;;;;;;;6.75;1.77;;;;;;;20.09;48.49;98917.19;4955558;28;20383;-49
2022/07/11 04:10:05;;;;;;;10.57;2.17;;;;;;;20.10;47.99;98907.31;4955471;28;20042;-49
2022/07/11 04:12:31;;;;;;;10.57;1.70;;;;;;;20.14;48.49;98913.72;4955436;28;20535;-49
2022/07/11 04:14:57;;;;;;;7.65;2.00;;;;;;;20.20;48.86;98920.69;4955354;28;20027;-49
2022/07/11 04:17:22;;;;;;;5.35;1.67;;;;;;;20.21;48.03;98914.31;4955325;29;20027;-50
2022/07/11 04:19:48;;;;;;;10.40;2.20;;;;;;;20.12;48.08;98915.84;4955260;29;20028;-49
2022/07/11 04:22:14;;;;;;;9.35;2.08;;;;;;;20.08;48.30;98920.09;4955176;28;20035;-49
2022/07/11 04:24:40;;;;;;;9.48;2.00;;;;;;;20.05;48.46;98916.09;4953832;29;20070;-49
2022/07/11 04:27:05;;;;;;;5.85;1.83;;;;;;;20.08;48.53;98918.25;4955110;29;20027;-49
2022/07/11 04:29:31;;;;;;;8.95;2.40;;;;;;;20.12;48.69;98918.53;4953312;28;20545;-49
2022/07/11 04:31:57;;;;;;;16.58;2.83;;;;;;;20.13;48.76;98922.81;4954980;28;20621;-49
2022/07/11 04:34:23;;;;;;;7.28;1.90;;;;;;;20.47;48.58;98920.59;4955045;29;20027;-49
2022/07/11 04:36:48;;;;;;;13.98;2.17;;;;;;;21.44;46.30;98917.47;4953391;29;20055;-49
2022/07/11 04:39:14;;;;;;;7.90;2.85;;;;;;;22.42;43.80;98918.19;4955231;29;20035;-49
2022/07/11 04:41:40;;;;;;;23.40;3.25;;;;;;;23.25;41.73;98915.94;4954862;29;20486;-49
2022/07/11 04:44:06;;;;;;;9.43;2.00;;;;;;;23.82;40.45;98922.50;4953429;29;20057;-50
2022/07/11 04:46:32;;;;;;;14.65;2.97;;;;;;;24.24;39.29;98918.34;4953488;29;20106;-49
2022/07/11 04:48:58;;;;;;;8.00;2.20;;;;;;;24.60;38.82;98917.16;4954723;28;20059;-49
2022/07/11 04:51:24;;;;;;;8.20;2.03;;;;;;;24.85;38.27;98924.91;4954675;28;20034;-49
2022/07/11 04:53:51;;;;;;;9.05;1.85;;;;;;;24.80;38.06;98930.34;4954621;28;20035;-49
2022/07/11 04:56:17;;;;;;;12.05;2.47;;;;;;;24.86;37.97;98926.50;4954628;28;20015;-49
2022/07/11 04:58:43;;;;;;;7.82;1.65;;;;;;;25.17;37.43;98928.75;4953239;29;20074;-50
2022/07/11 05:01:09;;;;;;;12.82;2.60;;;;;;;25.64;36.64;98923.53;4954541;28;20058;-49
2022/07/11 05:03:36;;;;;;;9.30;2.28;;;;;;;26.31;35.92;98934.72;4969226;28;20031;-49
2022/07/11 05:06:02;;;;;;;25.60;4.10;;;;;;;27.06;34.33;98930.03;4954434;28;20023;-49
2022/07/11 05:08:29;;;;;;;8.48;1.95;;;;;;;27.81;32.90;98935.00;4954456;28;20023;-49
2022/07/11 05:10:55;;;;;;;13.02;2.25;;;;;;;28.53;31.76;98922.38;4954333;28;20030;-49
2022/07/11 05:13:21;;;;;;;11.90;2.03;;;;;;;29.13;30.85;98924.41;4954343;28;20079;-49
2022/07/11 05:15:47;;;;;;;61.80;5.13;;;;;;;29.64;29.70;98920.09;4954293;28;20031;-49
2022/07/11 05:18:13;;;;;;;24.58;2.75;;;;;;;30.10;29.09;98927.78;4954339;29;20441;-49
2022/07/11 05:20:38;;;;;;;8.95;1.38;;;;;;;30.57;28.01;98923.13;4953163;29;20031;-49
2022/07/11 05:23:04;;;;;;;5.60;1.60;;;;;;;30.18;27.86;98937.78;4954156;28;20027;-49
2022/07/11 05:25:30;;;;;;;7.82;1.70;;;;;;;29.64;28.72;98940.91;4954170;29;20391;-49
2022/07/11 05:27:55;;;;;;;5.30;1.60;;;;;;;29.97;28.71;98941.19;4954080;29;20053;-49
2022/07/11 05:30:21;;;;;;;7.93;1.65;;;;;;;30.14;28.28;98939.56;4954062;29;20504;-49
2022/07/11 05:32:47;;;;;;;15.85;2.45;;;;;;;30.42;27.51;98935.31;4954049;28;20031;-49
2022/07/11 05:35:12;;;;;;;12.65;2.13;;;;;;;31.01;27.12;98948.06;4953948;28;20102;-50
2022/07/11 05:37:38;;;;;;;17.67;2.67;;;;;;;31.46;26.59;98949.34;4953745;29;20126;-50
2022/07/11 05:40:05;;;;;;;8.73;1.88;;;;;;;31.80;25.97;98939.28;4953936;29;20055;-49
2022/07/11 05:42:31;;;;;;;10.27;1.70;;;;;;;31.82;26.27;98945.94;4953014;28;20386;-49
2022/07/11 05:44:57;;;;;;;3.50;1.50;;;;;;;31.89;25.57;98948.09;4953802;28;20039;-49
2022/07/11 05:47:23;;;;;;;5.78;1.50;;;;;;;32.16;24.63;98941.28;4952827;29;20035;-49
2022/07/11 05:49:49;;;;;;;9.95;1.38;;;;;;;32.32;24.40;98932.50;4953779;28;20027;-49
2022/07/11 05:52:15;;;;;;;4.95;1.20;;;;;;;32.53;24.38;98946.72;4953829;28;20026;-49
2022/07/11 05:54:40;;;;;;;5.88;1.20;;;;;;;32.78;23.56;98942.09;4953803;28;20027;-49
2022/07/11 05:57:06;;;;;;;9.00;1.48;;;;;;;33.04;23.23;98933.56;4936438;29;20023;-49
2022/07/11 05:59:32;;;;;;;3.40;1.20;;;;;;;33.31;23.16;98941.31;4953726;29;20030;-49
2022/07/11 06:01:58;;;;;;;7.15;1.25;;;;;;;33.47;22.64;98952.25;4953691;29;20030;-49
2022/07/11 06:04:23;;;;;;;8.75;1.55;;;;;;;33.70;22.60;98947.84;4952345;29;20078;-49
2022/07/11 06:06:49;;;;;;;5.95;1.52;;;;;;;33.85;22.56;98949.03;4953646;29;20106;-49
2022/07/11 06:09:15;;;;;;;6.75;1.35;;;;;;;34.06;21.98;98951.50;4953678;28;20027;-50
2022/07/11 06:11:41;;;;;;;9.27;1.85;;;;;;;34.33;22.06;98946.31;4953598;28;20027;-49
2022/07/11 06:14:06;;;;;;;18.92;3.05;;;;;;;34.69;21.48;98948.00;4953616;28;20035;-50
2022/07/11 06:16:32;;;;;;;21.50;2.45;;;;;;;35.19;21.33;98951.81;4953593;28;20071;-50
2022/07/11 06:18:58;;;;;;;15.35;2.45;;;;;;;35.46;21.16;98946.50;4952277;29;20027;-50
2022/07/11 06:21:27;;;;;;;35.58;3.08;;;;;;;35.78;20.37;98947.13;4953526;28;20023;-50
2022/07/11 06:23:54;;;;;;;7.32;1.35;;;;;;;36.04;20.05;98947.53;4953507;28;20027;-50
2022/07/11 06:26:20;;;;;;;7.60;1.52;;;;;;;36.22;19.71;98951.38;4953587;28;20023;-51
2022/07/11 06:28:46;;;;;;;6.03;1.40;;;;;;;36.17;19.85;98963.41;4952248;29;20027;-50
2022/07/11 06:31:13;;;;;;;21.52;3.10;;;;;;;36.31;20.11;98953.88;4953494;28;20087;-50
2022/07/11 06:33:39;;;;;;;6.50;1.30;;;;;;;36.24;20.00;98954.56;4953466;28;20540;-51
2022/07/11 06:36:06;;;;;;;7.82;1.90;;;;;;;36.30;19.58;98950.34;4953370;28;20505;-50
2022/07/11 06:38:33;;;;;;;7.57;1.50;;;;;;;36.59;19.25;98942.59;4953225;28;20052;-50
2022/07/11 06:40:59;;;;;;;18.05;2.25;;;;;;;36.90;19.45;98949.66;4953654;28;20065;-50
2022/07/11 06:43:24;;;;;;;17.20;2.10;;;;;;;36.88;18.78;98957.47;4953331;28;20024;-50
2022/07/11 06:45:51;;;;;;;12.57;2.03;;;;;;;37.14;18.97;98951.19;4953308;29;20126;-50
2022/07/11 06:48:17;;;;;;;14.60;2.38;;;;;;;37.40;18.95;98952.25;4953617;28;20079;-50
2022/07/11 06:50:43;;;;;;;22.65;2.47;;;;;;;37.51;18.46;98950.44;4953291;28;20032;-50
2022/07/11 06:53:09;;;;;;;11.85;1.83;;;;;;;37.92;18.26;98945.00;4954065;28;20031;-51
2022/07/11 06:55:35;;;;;;;8.85;1.52;;;;;;;38.05;18.68;98952.91;4956813;28;20042;-50
2022/07/11 06:58:01;;;;;;;16.80;2.35;;;;;;;38.31;18.42;98957.47;4956834;28;20019;-51
2022/07/11 07:00:29;;;;;;;11.15;1.63;;;;;;;38.45;17.96;98954.03;4956694;28;20029;-48
2022/07/11 07:02:56;;;;;;;14.35;2.00;;;;;;;38.42;18.05;98957.56;4956632;29;20020;-48
2022/07/11 07:05:24;;;;;;;9.40;1.50;;;;;;;38.53;17.25;98961.97;4955333;29;20035;-48
2022/07/11 07:07:50;;;;;;;10.10;1.58;;;;;;;38.70;17.54;98960.50;4955697;29;20037;-48
2022/07/11 07:10:16;;;;;;;9.80;1.90;;;;;;;38.89;17.79;98962.16;4956593;28;20105;-48
2022/07/11 07:12:42;;;;;;;12.05;1.88;;;;;;;38.62;17.57;98964.38;4956497;28;20106;-48
2022/07/11 07:15:09;;;;;;;13.27;2.38;;;;;;;38.51;17.90;98961.56;4956462;29;20034;-47
2022/07/11 07:17:34;;;;;;;7.65;1.77;;;;;;;38.35;17.74;98964.56;4955123;29;20096;-48
2022/07/11 07:20:00;;;;;;;6.72;1.70;;;;;;;38.33;17.82;98964.13;4956402;28;20036;-48
2022/07/11 07:22:26;;;;;;;3.70;1.08;;;;;;;38.08;18.03;98963.16;4956298;28;20028;-48
2022/07/11 07:24:52;;;;;;;13.13;1.90;;;;;;;37.94;18.49;98956.34;4956227;29;20023;-50
2022/07/11 07:27:17;;;;;;;8.13;1.85;;;;;;;37.71;18.44;98963.94;4956225;29;20024;-50
2022/07/11 07:29:43;;;;;;;22.58;3.38;;;;;;;37.65;18.85;98957.25;4956225;28;20031;-50
2022/07/11 07:32:09;;;;;;;13.98;1.98;;;;;;;37.37;18.72;98958.50;4956170;29;20023;-50
2022/07/11 07:34:34;;;;;;;15.90;1.88;;;;;;;37.33;18.68;98958.47;4954786;29;20035;-50
2022/07/11 07:37:00;;;;;;;10.02;1.88;;;;;;;37.13;18.98;98954.31;4955868;28;20079;-50
2022/07/11 07:39:26;;;;;;;10.23;1.60;;;;;;;36.49;19.63;98956.88;4954795;29;20031;-50
2022/07/11 07:41:52;;;;;;;14.07;2.30;;;;;;;35.92;20.32;98962.16;4955966;29;20074;-51
2022/07/11 07:44:19;;;;;;;25.17;2.80;;;;;;;35.70;20.68;98963.72;4955886;29;20019;-51
2022/07/11 07:46:46;;;;;;;10.48;1.65;;;;;;;35.45;20.75;98964.00;4955895;29;20489;-48
2022/07/11 07:49:11;;;;;;;5.88;1.20;;;;;;;35.09;20.90;98963.25;4955910;28;20023;-48
2022/07/11 07:51:38;;;;;;;11.90;2.00;;;;;;;34.87;21.46;98958.50;4954432;29;20045;-51
2022/07/11 07:54:03;;;;;;;4.82;1.55;;;;;;;35.02;21.32;98963.13;4955816;29;20023;-50
2022/07/11 07:56:29;;;;;;;5.82;1.40;;;;;;;35.17;21.25;98962.28;4955703;29;20027;-51
2022/07/11 07:58:56;;;;;;;9.93;1.70;;;;;;;35.89;20.94;98957.44;4955677;28;20066;-50
2022/07/11 08:01:34;;;;;;;7.18;1.60;;;;;;;36.65;19.90;98960.28;4955617;29;20027;-49
2022/07/11 08:04:02;;;;;;;10.07;1.88;;;;;;;37.80;19.12;98956.22;4954087;28;20031;-50
2022/07/11 08:06:27;;;;;;;7.28;1.60;;;;;;;38.64;17.53;98950.28;4954826;28;20031;-50
2022/07/11 08:08:53;;;;;;;10.50;1.52;;;;;;;39.26;17.26;98943.91;4955538;29;20486;-48
2022/07/11 08:11:19;;;;;;;13.73;3.13;;;;;;;39.46;17.22;98947.16;4954140;29;20513;-47
2022/07/11 08:13:45;;;;;;;7.75;1.75;;;;;;;39.99;16.35;98948.44;4955678;28;20027;-50
2022/07/11 08:16:12;;;;;;;9.48;1.83;;;;;;;40.65;15.99;98942.47;4955394;28;20050;-50
2022/07/11 08:18:37;;;;;;;17.42;2.65;;;;;;;40.90;15.92;98928.69;4955242;28;20031;-49
2022/07/11 08:21:03;;;;;;;19.02;3.30;;;;;;;41.17;16.21;98926.22;4955306;29;20038;-50
2022/07/11 08:23:29;;;;;;;12.63;1.60;;;;;;;41.45;15.41;98930.00;4953830;29;20489;-52
2022/07/11 08:25:55;;;;;;;11.45;1.65;;;;;;;41.49;15.34;98939.84;4953902;29;20122;-52
2022/07/11 08:28:20;;;;;;;9.60;1.70;;;;;;;41.67;15.13;98939.72;4955133;29;20026;-51
2022/07/11 08:30:46;;;;;;;14.13;2.15;;;;;;;41.58;15.25;98930.34;4955011;28;20114;-51
2022/07/11 08:33:13;;;;;;;70.18;7.28;;;;;;;41.67;15.19;98931.44;4953794;29;20493;-51
2022/07/11 08:35:39;;;;;;;9.55;1.98;;;;;;;42.00;14.48;98918.22;4953724;29;20090;-52
2022/07/11 08:38:04;;;;;;;10.60;1.75;;;;;;;42.21;14.81;98924.75;4954768;28;20434;-52
2022/07/11 08:40:30;;;;;;;102.13;8.00;;;;;;;42.15;14.86;98927.16;4953641;29;20027;-52
2022/07/11 08:42:58;;;;;;;14.88;2.03;;;;;;;42.48;14.70;98931.22;4954855;28;20031;-52
2022/07/11 08:45:33;;;;;;;12.75;1.88;;;;;;;42.40;14.63;98926.94;4954804;28;20020;-53
2022/07/11 08:48:00;;;;;;;8.40;1.40;;;;;;;42.50;14.22;98925.25;4954849;28;20031;-52
2022/07/11 08:50:28;;;;;;;6.85;1.50;;;;;;;43.07;14.28;98916.34;4953470;29;20038;-52
2022/07/11 08:52:58;;;;;;;7.47;1.70;;;;;;;43.27;13.61;98924.00;4954780;28;20027;-52
2022/07/11 08:55:25;;;;;;;16.77;2.00;;;;;;;43.07;13.46;98927.38;4954677;28;20031;-51
2022/07/11 08:57:51;;;;;;;11.18;1.50;;;;;;;43.08;13.55;98920.69;4953377;29;20408;-52
2022/07/11 09:00:17;;;;;;;5.10;1.40;;;;;;;42.67;13.94;98931.78;4954524;28;20077;-53
2022/07/11 09:02:44;;;;;;;5.57;1.60;;;;;;;42.24;14.31;98921.97;4954600;28;20036;-51
2022/07/11 09:05:11;;;;;;;8.88;1.65;;;;;;;42.19;14.41;98929.91;4954500;28;20509;-52
2022/07/11 09:07:46;;;;;;;5.70;1.38;;;;;;;42.22;14.74;98924.34;4954456;28;20027;-52
2022/07/11 09:10:13;;;;;;;10.55;1.98;;;;;;;42.46;14.29;98919.00;4953227;29;20238;-52
2022/07/11 09:12:59;;;;;;;12.77;2.10;;;;;;;42.54;14.19;98917.72;4953099;29;20544;-53
2022/07/11 09:15:45;;;;;;;6.72;1.73;;;;;;;42.35;14.76;98918.31;4954353;28;20561;-52
2022/07/11 09:18:34;;;;;;;5.57;1.35;;;;;;;42.78;14.35;98912.34;4954321;28;20031;-51
2022/07/11 09:26:39;;;;;;;10.30;1.42;;;;;;;42.40;14.29;98907.63;4954197;29;20114;-53
2022/07/11 09:29:12;;;;;;;5.95;1.38;;;;;;;42.07;14.81;98906.34;4952913;29;20035;-52
2022/07/11 09:31:39;;;;;;;7.73;3.07;;;;;;;42.35;14.64;98916.34;4952802;29;20406;-52
2022/07/11 09:34:10;;;;;;;4.10;1.42;;;;;;;42.54;14.29;98906.69;4954068;28;20030;-52
2022/07/11 09:36:39;;;;;;;5.22;1.50;;;;;;;42.12;14.82;98908.69;4953812;28;20119;-52
2022/07/11 09:39:06;;;;;;;4.93;1.20;;;;;;;42.11;15.02;98912.63;4952730;29;20122;-52
2022/07/11 09:41:34;;;;;;;12.65;1.60;;;;;;;42.13;14.52;98904.72;4952612;29;20023;-53
2022/07/11 09:44:13;;;;;;;8.82;1.30;;;;;;;42.38;14.84;98898.97;4952577;29;20049;-52
2022/07/11 09:46:45;;;;;;;7.15;1.73;;;;;;;42.77;14.52;98906.03;4954177;28;20497;-52
2022/07/11 09:49:11;;;;;;;2.70;1.05;;;;;;;42.96;14.24;98901.09;4952678;29;20555;-52
2022/07/11 09:51:38;;;;;;;6.45;1.27;;;;;;;42.74;14.07;98897.78;4953748;29;20019;-52
2022/07/11 09:54:05;;;;;;;6.45;1.40;;;;;;;42.56;14.46;98901.56;4953822;28;20086;-52
2022/07/11 09:56:39;;;;;;;7.43;1.40;;;;;;;42.37;14.26;98891.09;4953738;28;20111;-53
2022/07/11 09:59:05;;;;;;;6.70;1.45;;;;;;;42.55;14.52;98886.19;4953836;28;20042;-51
2022/07/11 10:01:32;;;;;;;3.10;1.30;;;;;;;42.41;14.46;98892.63;4954240;28;20433;-52
2022/07/11 10:03:58;;;;;;;11.43;1.77;;;;;;;42.15;14.73;98898.81;4953609;28;20114;-52
2022/07/11 10:06:25;;;;;;;8.65;1.80;;;;;;;41.90;14.90;98897.81;4953948;28;20042;-52
2022/07/11 10:08:51;;;;;;;7.15;2.22;;;;;;;41.54;15.27;98897.28;4953703;28;20024;-50
2022/07/11 10:11:18;;;;;;;8.02;1.60;;;;;;;41.38;15.49;98902.50;4952299;29;20118;-52
2022/07/11 10:13:44;;;;;;;5.82;1.40;;;;;;;41.59;15.51;98904.31;4953613;28;20028;-52
2022/07/11 10:16:35;;;;;;;7.13;1.35;;;;;;;41.46;15.41;98906.78;4953547;28;20027;-52
2022/07/11 10:19:32;;;;;;;5.15;1.48;;;;;;;41.08;15.60;98899.09;4953559;28;20102;-52
2022/07/11 10:22:19;;;;;;;5.32;1.75;;;;;;;41.45;15.69;98903.22;4953531;29;20026;-52
2022/07/11 10:25:00;;;;;;;7.88;2.10;;;;;;;41.43;15.41;98902.84;4952272;29;20405;-51
2022/07/11 10:28:06;;;;;;;9.85;1.45;;;;;;;41.87;15.39;98884.81;4953609;28;20461;-52
2022/07/11 10:31:01;;;;;;;9.95;1.83;;;;;;;41.95;15.17;98893.81;4956046;29;20042;-52
2022/07/11 10:33:30;;;;;;;24.13;4.05;;;;;;;41.73;15.61;98893.22;4955579;29;20051;-52
2022/07/11 10:35:58;;;;;;;19.05;2.47;;;;;;;41.16;15.93;98899.06;4955922;29;20058;-53
2022/07/11 10:38:24;;;;;;;7.60;1.65;;;;;;;41.14;16.08;98899.47;4956871;28;20129;-53
2022/07/11 10:40:51;;;;;;;9.32;1.63;;;;;;;41.35;15.96;98895.03;4957151;28;20054;-52
2022/07/11 10:43:22;;;;;;;4.35;1.95;;;;;;;41.81;15.52;98888.44;4956964;28;20058;-51
2022/07/11 10:45:59;;;;;;;3.78;1.33;;;;;;;42.10;15.56;98894.53;4957109;29;20102;-52
2022/07/11 10:48:27;;;;;;;6.40;1.40;;;;;;;42.23;15.14;98890.03;4955698;29;20023;-52
2022/07/11 10:51:09;;;;;;;9.30;1.63;;;;;;;42.61;14.91;98884.53;4956932;28;20102;-52
2022/07/11 10:53:49;;;;;;;9.63;2.43;;;;;;;42.77;15.03;98888.69;4957002;28;20031;-53
2022/07/11 10:56:38;;;;;;;6.50;1.33;;;;;;;42.39;15.06;98883.97;4956862;28;20019;-52
2022/07/11 10:59:15;;;;;;;8.30;2.78;;;;;;;42.43;14.88;98881.19;4955594;29;20031;-51
2022/07/11 11:02:12;;;;;;;5.90;1.42;;;;;;;42.29;15.33;98880.13;4956803;28;20027;-53
2022/07/11 11:04:58;;;;;;;3.45;1.17;;;;;;;42.24;15.28;98877.03;4956610;28;20101;-52
2022/07/11 11:07:31;;;;;;;7.40;1.63;;;;;;;42.26;14.94;98869.94;4956736;28;20106;-52
2022/07/11 11:09:57;;;;;;;38.10;34.28;;;;;;;42.15;15.26;98872.00;4956679;28;20043;-51
2022/07/11 11:13:05;;;;;;;5.90;4.07;;;;;;;42.55;15.35;98877.91;4955172;29;20038;-51
2022/07/11 11:15:34;;;;;;;2.92;1.30;;;;;;;42.27;15.31;98873.47;4897246;29;20052;-52
2022/07/11 11:18:23;;;;;;;8.93;2.22;;;;;;;42.08;15.59;98872.09;4897324;29;20036;-52
2022/07/11 11:21:00;;;;;;;4.25;1.10;;;;;;;41.95;15.63;98873.75;4892132;29;20050;-52
2022/07/11 11:23:33;;;;;;;7.97;1.58;;;;;;;41.66;15.69;98868.50;4881494;29;20063;-52
2022/07/11 11:26:10;;;;;;;6.13;1.85;;;;;;;41.71;15.99;98863.31;4897237;29;20032;-52
2022/07/11 11:28:37;;;;;;;5.00;1.20;;;;;;;41.66;15.98;98865.72;4881525;29;20123;-52
2022/07/11 11:31:06;;;;;;;7.00;1.40;;;;;;;41.77;15.81;98865.63;4897033;29;20066;-52
2022/07/11 11:33:34;;;;;;;11.27;1.70;;;;;;;41.65;15.88;98864.16;4897002;29;20036;-52
2022/07/11 11:36:04;;;;;;;6.28;1.48;;;;;;;41.40;16.22;98865.09;4896939;29;20041;-52
2022/07/11 11:38:34;;;;;;;3.35;1.60;;;;;;;41.30;16.35;98863.97;4896734;29;20475;-52
2022/07/11 11:41:00;;;;;;;8.30;1.83;;;;;;;41.28;16.42;98868.34;4881085;29;20140;-52